sensor_id;sensor_type;location;lat;lon;timestamp;P1;durP1;ratioP1;P2;durP2;ratioP2
43996;SDS011;34318;45.818;15.964;2022-08-21T00:00:30;7.07;;;3.47;;
43996;SDS011;34318;45.818;15.964;2022-08-21T00:02:59;4.80;;;3.60;;
43996;SDS011;34318;45.818;15.964;2022-08-21T00:05:29;3.90;;;3.45;;
43996;SDS011;34318;45.818;15.964;2022-08-21T00:07:58;3.78;;;3.22;;
43996;SDS011;34318;45.818;15.964;2022-08-21T00:10:25;4.60;;;3.65;;
43996;SDS011;34318;45.818;15.964;2022-08-21T00:12:53;3.90;;;3.25;;
43996;SDS011;34318;45.818;15.964;2022-08-21T00:15:24;5.85;;;4.20;;
43996;SDS011;34318;45.818;15.964;2022-08-21T00:17:54;4.78;;;3.63;;
43996;SDS011;34318;45.818;15.964;2022-08-21T00:20:22;8.55;;;4.05;;
43996;SDS011;34318;45.818;15.964;2022-08-21T00:22:49;6.07;;;3.83;;
43996;SDS011;34318;45.818;15.964;2022-08-21T00:25:21;5.03;;;3.20;;
43996;SDS011;34318;45.818;15.964;2022-08-21T00:27:51;3.95;;;3.08;;
43996;SDS011;34318;45.818;15.964;2022-08-21T00:30:19;4.05;;;3.00;;
43996;SDS011;34318;45.818;15.964;2022-08-21T00:32:49;3.88;;;3.50;;
43996;SDS011;34318;45.818;15.964;2022-08-21T00:35:17;5.18;;;3.40;;
43996;SDS011;34318;45.818;15.964;2022-08-21T00:37:45;4.53;;;3.03;;
43996;SDS011;34318;45.818;15.964;2022-08-21T00:40:15;3.22;;;2.80;;
43996;SDS011;34318;45.818;15.964;2022-08-21T00:42:45;5.70;;;3.53;;
43996;SDS011;34318;45.818;15.964;2022-08-21T00:45:21;3.80;;;2.70;;
43996;SDS011;34318;45.818;15.964;2022-08-21T00:47:49;3.15;;;2.85;;
43996;SDS011;34318;45.818;15.964;2022-08-21T00:50:20;3.30;;;3.00;;
43996;SDS011;34318;45.818;15.964;2022-08-21T00:52:47;3.25;;;2.95;;
43996;SDS011;34318;45.818;15.964;2022-08-21T00:55:17;3.50;;;2.90;;
43996;SDS011;34318;45.818;15.964;2022-08-21T00:57:49;5.00;;;2.90;;
43996;SDS011;34318;45.818;15.964;2022-08-21T01:00:23;3.22;;;2.78;;
43996;SDS011;34318;45.818;15.964;2022-08-21T01:02:55;3.00;;;2.70;;
43996;SDS011;34318;45.818;15.964;2022-08-21T01:05:24;3.05;;;2.75;;
43996;SDS011;34318;45.818;15.964;2022-08-21T01:07:53;6.35;;;3.00;;
43996;SDS011;34318;45.818;15.964;2022-08-21T01:10:23;3.45;;;2.67;;
43996;SDS011;34318;45.818;15.964;2022-08-21T01:12:51;3.00;;;2.45;;
43996;SDS011;34318;45.818;15.964;2022-08-21T01:15:22;3.35;;;2.20;;
43996;SDS011;34318;45.818;15.964;2022-08-21T01:17:50;3.75;;;2.50;;
43996;SDS011;34318;45.818;15.964;2022-08-21T01:20:18;2.90;;;2.70;;
43996;SDS011;34318;45.818;15.964;2022-08-21T01:22:45;3.50;;;2.65;;
43996;SDS011;34318;45.818;15.964;2022-08-21T01:25:14;2.60;;;2.40;;
43996;SDS011;34318;45.818;15.964;2022-08-21T01:27:42;2.78;;;2.55;;
43996;SDS011;34318;45.818;15.964;2022-08-21T01:30:11;2.45;;;2.22;;
43996;SDS011;34318;45.818;15.964;2022-08-21T01:32:44;3.38;;;2.60;;
43996;SDS011;34318;45.818;15.964;2022-08-21T01:35:13;2.97;;;2.30;;
43996;SDS011;34318;45.818;15.964;2022-08-21T01:37:44;3.30;;;2.70;;
43996;SDS011;34318;45.818;15.964;2022-08-21T01:40:12;2.55;;;2.28;;
43996;SDS011;34318;45.818;15.964;2022-08-21T01:42:44;2.97;;;2.40;;
43996;SDS011;34318;45.818;15.964;2022-08-21T01:45:12;3.08;;;2.45;;
43996;SDS011;34318;45.818;15.964;2022-08-21T01:47:42;2.38;;;2.17;;
43996;SDS011;34318;45.818;15.964;2022-08-21T01:50:11;3.40;;;2.92;;
43996;SDS011;34318;45.818;15.964;2022-08-21T01:52:40;2.42;;;2.22;;
43996;SDS011;34318;45.818;15.964;2022-08-21T01:55:08;2.55;;;2.30;;
43996;SDS011;34318;45.818;15.964;2022-08-21T01:57:38;2.50;;;2.30;;
43996;SDS011;34318;45.818;15.964;2022-08-21T02:00:05;3.55;;;2.58;;
43996;SDS011;34318;45.818;15.964;2022-08-21T02:02:35;2.50;;;2.30;;
43996;SDS011;34318;45.818;15.964;2022-08-21T02:05:02;3.78;;;2.83;;
43996;SDS011;34318;45.818;15.964;2022-08-21T02:07:40;3.10;;;2.70;;
43996;SDS011;34318;45.818;15.964;2022-08-21T02:10:11;4.03;;;2.40;;
43996;SDS011;34318;45.818;15.964;2022-08-21T02:12:41;3.53;;;2.53;;
43996;SDS011;34318;45.818;15.964;2022-08-21T02:15:08;2.38;;;2.20;;
43996;SDS011;34318;45.818;15.964;2022-08-21T02:17:43;3.05;;;2.25;;
43996;SDS011;34318;45.818;15.964;2022-08-21T02:20:24;3.63;;;2.38;;
43996;SDS011;34318;45.818;15.964;2022-08-21T02:22:51;3.05;;;2.25;;
43996;SDS011;34318;45.818;15.964;2022-08-21T02:25:19;2.80;;;2.28;;
43996;SDS011;34318;45.818;15.964;2022-08-21T02:27:50;2.35;;;2.15;;
43996;SDS011;34318;45.818;15.964;2022-08-21T02:30:21;2.65;;;2.30;;
43996;SDS011;34318;45.818;15.964;2022-08-21T02:32:57;2.88;;;2.40;;
43996;SDS011;34318;45.818;15.964;2022-08-21T02:35:25;2.70;;;2.50;;
43996;SDS011;34318;45.818;15.964;2022-08-21T02:37:55;3.28;;;2.53;;
43996;SDS011;34318;45.818;15.964;2022-08-21T02:40:26;3.45;;;1.92;;
43996;SDS011;34318;45.818;15.964;2022-08-21T02:42:57;2.05;;;1.92;;
43996;SDS011;34318;45.818;15.964;2022-08-21T02:45:25;2.42;;;2.15;;
43996;SDS011;34318;45.818;15.964;2022-08-21T02:48:04;3.08;;;2.67;;
43996;SDS011;34318;45.818;15.964;2022-08-21T02:50:41;2.20;;;2.10;;
43996;SDS011;34318;45.818;15.964;2022-08-21T02:53:14;2.15;;;1.95;;
43996;SDS011;34318;45.818;15.964;2022-08-21T02:55:43;2.38;;;2.13;;
43996;SDS011;34318;45.818;15.964;2022-08-21T02:58:13;2.38;;;2.10;;
43996;SDS011;34318;45.818;15.964;2022-08-21T03:00:41;3.97;;;2.28;;
43996;SDS011;34318;45.818;15.964;2022-08-21T03:03:09;2.72;;;2.42;;
43996;SDS011;34318;45.818;15.964;2022-08-21T03:05:41;3.80;;;2.65;;
43996;SDS011;34318;45.818;15.964;2022-08-21T03:08:08;3.00;;;2.10;;
43996;SDS011;34318;45.818;15.964;2022-08-21T03:10:37;4.47;;;2.42;;
43996;SDS011;34318;45.818;15.964;2022-08-21T03:13:06;2.97;;;2.67;;
43996;SDS011;34318;45.818;15.964;2022-08-21T03:15:33;2.63;;;2.25;;
43996;SDS011;34318;45.818;15.964;2022-08-21T03:18:01;2.92;;;2.72;;
43996;SDS011;34318;45.818;15.964;2022-08-21T03:20:33;2.72;;;2.38;;
43996;SDS011;34318;45.818;15.964;2022-08-21T03:23:02;3.65;;;2.33;;
43996;SDS011;34318;45.818;15.964;2022-08-21T03:25:38;2.63;;;2.35;;
43996;SDS011;34318;45.818;15.964;2022-08-21T03:28:08;2.70;;;2.50;;
43996;SDS011;34318;45.818;15.964;2022-08-21T03:30:38;3.13;;;2.20;;
43996;SDS011;34318;45.818;15.964;2022-08-21T03:33:09;2.38;;;2.17;;
43996;SDS011;34318;45.818;15.964;2022-08-21T03:35:45;2.80;;;2.53;;
43996;SDS011;34318;45.818;15.964;2022-08-21T03:38:24;4.50;;;2.72;;
43996;SDS011;34318;45.818;15.964;2022-08-21T03:40:52;3.55;;;2.63;;
43996;SDS011;34318;45.818;15.964;2022-08-21T03:43:19;4.38;;;2.53;;
43996;SDS011;34318;45.818;15.964;2022-08-21T03:45:46;2.60;;;2.40;;
43996;SDS011;34318;45.818;15.964;2022-08-21T03:48:13;4.55;;;3.17;;
43996;SDS011;34318;45.818;15.964;2022-08-21T03:50:41;2.97;;;2.50;;
43996;SDS011;34318;45.818;15.964;2022-08-21T03:53:11;6.88;;;2.83;;
43996;SDS011;34318;45.818;15.964;2022-08-21T03:55:43;3.05;;;2.72;;
43996;SDS011;34318;45.818;15.964;2022-08-21T03:58:12;3.92;;;2.65;;
43996;SDS011;34318;45.818;15.964;2022-08-21T04:00:43;2.53;;;2.33;;
43996;SDS011;34318;45.818;15.964;2022-08-21T04:03:12;2.95;;;2.65;;
43996;SDS011;34318;45.818;15.964;2022-08-21T04:05:42;3.35;;;2.78;;
43996;SDS011;34318;45.818;15.964;2022-08-21T04:08:09;2.28;;;2.08;;
43996;SDS011;34318;45.818;15.964;2022-08-21T04:10:36;2.63;;;2.42;;
43996;SDS011;34318;45.818;15.964;2022-08-21T04:13:05;2.63;;;2.38;;
43996;SDS011;34318;45.818;15.964;2022-08-21T04:15:33;2.63;;;2.42;;
43996;SDS011;34318;45.818;15.964;2022-08-21T04:18:01;2.78;;;2.40;;
43996;SDS011;34318;45.818;15.964;2022-08-21T04:20:28;3.25;;;2.60;;
43996;SDS011;34318;45.818;15.964;2022-08-21T04:22:55;3.40;;;2.53;;
43996;SDS011;34318;45.818;15.964;2022-08-21T04:25:23;2.67;;;2.30;;
43996;SDS011;34318;45.818;15.964;2022-08-21T04:27:51;2.67;;;2.47;;
43996;SDS011;34318;45.818;15.964;2022-08-21T04:30:20;3.90;;;3.15;;
43996;SDS011;34318;45.818;15.964;2022-08-21T04:32:54;2.40;;;2.17;;
43996;SDS011;34318;45.818;15.964;2022-08-21T04:35:23;2.83;;;2.60;;
43996;SDS011;34318;45.818;15.964;2022-08-21T04:37:51;2.65;;;2.33;;
43996;SDS011;34318;45.818;15.964;2022-08-21T04:40:19;3.65;;;2.45;;
43996;SDS011;34318;45.818;15.964;2022-08-21T04:42:51;2.83;;;2.55;;
43996;SDS011;34318;45.818;15.964;2022-08-21T04:47:59;2.60;;;2.40;;
43996;SDS011;34318;45.818;15.964;2022-08-21T04:50:29;2.70;;;2.40;;
43996;SDS011;34318;45.818;15.964;2022-08-21T04:53:05;2.72;;;2.53;;
43996;SDS011;34318;45.818;15.964;2022-08-21T04:55:35;3.80;;;2.45;;
43996;SDS011;34318;45.818;15.964;2022-08-21T04:58:05;2.50;;;2.30;;
43996;SDS011;34318;45.818;15.964;2022-08-21T05:00:35;3.20;;;2.60;;
43996;SDS011;34318;45.818;15.964;2022-08-21T05:03:03;2.90;;;2.60;;
43996;SDS011;34318;45.818;15.964;2022-08-21T05:05:32;2.60;;;2.40;;
43996;SDS011;34318;45.818;15.964;2022-08-21T05:07:59;2.78;;;2.53;;
43996;SDS011;34318;45.818;15.964;2022-08-21T05:10:28;2.65;;;2.45;;
43996;SDS011;34318;45.818;15.964;2022-08-21T05:12:57;2.53;;;2.33;;
43996;SDS011;34318;45.818;15.964;2022-08-21T05:15:26;3.38;;;2.30;;
43996;SDS011;34318;45.818;15.964;2022-08-21T05:17:53;2.92;;;2.60;;
43996;SDS011;34318;45.818;15.964;2022-08-21T05:20:27;2.45;;;2.25;;
43996;SDS011;34318;45.818;15.964;2022-08-21T05:22:54;2.88;;;2.67;;
43996;SDS011;34318;45.818;15.964;2022-08-21T05:25:21;2.70;;;2.50;;
43996;SDS011;34318;45.818;15.964;2022-08-21T05:27:49;4.57;;;2.72;;
43996;SDS011;34318;45.818;15.964;2022-08-21T05:30:17;3.42;;;3.05;;
43996;SDS011;34318;45.818;15.964;2022-08-21T05:32:45;2.97;;;2.67;;
43996;SDS011;34318;45.818;15.964;2022-08-21T05:35:14;2.58;;;2.33;;
43996;SDS011;34318;45.818;15.964;2022-08-21T05:37:41;2.95;;;2.20;;
43996;SDS011;34318;45.818;15.964;2022-08-21T05:40:08;2.67;;;2.28;;
43996;SDS011;34318;45.818;15.964;2022-08-21T05:42:49;2.83;;;2.33;;
43996;SDS011;34318;45.818;15.964;2022-08-21T05:45:22;2.58;;;2.38;;
43996;SDS011;34318;45.818;15.964;2022-08-21T05:48:10;2.60;;;2.40;;
43996;SDS011;34318;45.818;15.964;2022-08-21T05:50:39;2.40;;;2.20;;
43996;SDS011;34318;45.818;15.964;2022-08-21T05:53:07;4.22;;;2.50;;
43996;SDS011;34318;45.818;15.964;2022-08-21T05:55:36;2.85;;;2.30;;
43996;SDS011;34318;45.818;15.964;2022-08-21T05:58:10;3.15;;;2.42;;
43996;SDS011;34318;45.818;15.964;2022-08-21T06:00:38;4.55;;;3.35;;
43996;SDS011;34318;45.818;15.964;2022-08-21T06:03:10;2.85;;;2.53;;
43996;SDS011;34318;45.818;15.964;2022-08-21T06:05:38;4.32;;;2.70;;
43996;SDS011;34318;45.818;15.964;2022-08-21T06:08:05;2.97;;;2.55;;
43996;SDS011;34318;45.818;15.964;2022-08-21T06:10:32;3.72;;;3.13;;
43996;SDS011;34318;45.818;15.964;2022-08-21T06:12:59;5.25;;;2.80;;
43996;SDS011;34318;45.818;15.964;2022-08-21T06:15:26;5.47;;;3.13;;
43996;SDS011;34318;45.818;15.964;2022-08-21T06:17:53;5.45;;;3.22;;
43996;SDS011;34318;45.818;15.964;2022-08-21T06:20:21;3.95;;;3.33;;
43996;SDS011;34318;45.818;15.964;2022-08-21T06:22:47;3.45;;;2.92;;
43996;SDS011;34318;45.818;15.964;2022-08-21T06:25:15;3.75;;;2.92;;
43996;SDS011;34318;45.818;15.964;2022-08-21T06:27:42;3.88;;;3.05;;
43996;SDS011;34318;45.818;15.964;2022-08-21T06:30:09;3.10;;;2.70;;
43996;SDS011;34318;45.818;15.964;2022-08-21T06:32:36;6.65;;;2.97;;
43996;SDS011;34318;45.818;15.964;2022-08-21T06:38:16;4.40;;;2.95;;
43996;SDS011;34318;45.818;15.964;2022-08-21T06:40:44;3.30;;;2.88;;
43996;SDS011;34318;45.818;15.964;2022-08-21T06:43:15;3.92;;;3.17;;
43996;SDS011;34318;45.818;15.964;2022-08-21T06:45:43;5.38;;;3.15;;
43996;SDS011;34318;45.818;15.964;2022-08-21T06:48:11;3.70;;;3.00;;
43996;SDS011;34318;45.818;15.964;2022-08-21T06:50:44;5.30;;;3.13;;
43996;SDS011;34318;45.818;15.964;2022-08-21T06:53:15;4.20;;;2.88;;
43996;SDS011;34318;45.818;15.964;2022-08-21T06:55:45;4.40;;;3.58;;
43996;SDS011;34318;45.818;15.964;2022-08-21T06:58:13;3.35;;;3.05;;
43996;SDS011;34318;45.818;15.964;2022-08-21T07:00:41;3.58;;;2.83;;
43996;SDS011;34318;45.818;15.964;2022-08-21T07:03:22;3.58;;;2.90;;
43996;SDS011;34318;45.818;15.964;2022-08-21T07:05:54;6.00;;;3.17;;
43996;SDS011;34318;45.818;15.964;2022-08-21T07:08:30;2.95;;;2.63;;
43996;SDS011;34318;45.818;15.964;2022-08-21T07:10:58;3.90;;;3.00;;
43996;SDS011;34318;45.818;15.964;2022-08-21T07:13:27;3.92;;;2.85;;
43996;SDS011;34318;45.818;15.964;2022-08-21T07:15:54;3.58;;;2.55;;
43996;SDS011;34318;45.818;15.964;2022-08-21T07:18:28;3.10;;;2.63;;
43996;SDS011;34318;45.818;15.964;2022-08-21T07:20:55;3.70;;;3.40;;
43996;SDS011;34318;45.818;15.964;2022-08-21T07:23:23;3.63;;;2.85;;
43996;SDS011;34318;45.818;15.964;2022-08-21T07:25:54;4.05;;;3.03;;
43996;SDS011;34318;45.818;15.964;2022-08-21T07:28:21;5.05;;;2.78;;
43996;SDS011;34318;45.818;15.964;2022-08-21T07:30:52;3.38;;;2.88;;
43996;SDS011;34318;45.818;15.964;2022-08-21T07:33:21;6.07;;;3.33;;
43996;SDS011;34318;45.818;15.964;2022-08-21T07:35:49;3.50;;;2.97;;
43996;SDS011;34318;45.818;15.964;2022-08-21T07:38:16;5.78;;;3.00;;
43996;SDS011;34318;45.818;15.964;2022-08-21T07:40:45;3.00;;;2.70;;
43996;SDS011;34318;45.818;15.964;2022-08-21T07:43:13;3.58;;;2.80;;
43996;SDS011;34318;45.818;15.964;2022-08-21T07:45:42;4.05;;;2.53;;
43996;SDS011;34318;45.818;15.964;2022-08-21T07:48:10;4.15;;;2.72;;
43996;SDS011;34318;45.818;15.964;2022-08-21T07:50:38;4.82;;;2.90;;
43996;SDS011;34318;45.818;15.964;2022-08-21T07:53:07;5.90;;;3.15;;
43996;SDS011;34318;45.818;15.964;2022-08-21T07:55:37;2.55;;;2.35;;
43996;SDS011;34318;45.818;15.964;2022-08-21T07:58:04;3.78;;;2.90;;
43996;SDS011;34318;45.818;15.964;2022-08-21T08:00:31;8.18;;;6.82;;
43996;SDS011;34318;45.818;15.964;2022-08-21T08:02:58;11.02;;;9.80;;
43996;SDS011;34318;45.818;15.964;2022-08-21T08:05:27;12.27;;;11.18;;
43996;SDS011;34318;45.818;15.964;2022-08-21T08:07:56;12.70;;;10.57;;
43996;SDS011;34318;45.818;15.964;2022-08-21T08:10:24;10.60;;;9.52;;
43996;SDS011;34318;45.818;15.964;2022-08-21T08:12:58;10.07;;;9.18;;
43996;SDS011;34318;45.818;15.964;2022-08-21T08:15:27;9.90;;;9.00;;
43996;SDS011;34318;45.818;15.964;2022-08-21T08:17:57;7.78;;;7.00;;
43996;SDS011;34318;45.818;15.964;2022-08-21T08:20:24;7.00;;;6.20;;
43996;SDS011;34318;45.818;15.964;2022-08-21T08:22:57;6.72;;;5.95;;
43996;SDS011;34318;45.818;15.964;2022-08-21T08:25:24;6.43;;;4.88;;
43996;SDS011;34318;45.818;15.964;2022-08-21T08:28:08;5.10;;;4.60;;
43996;SDS011;34318;45.818;15.964;2022-08-21T08:30:42;5.67;;;4.93;;
43996;SDS011;34318;45.818;15.964;2022-08-21T08:33:10;5.13;;;4.47;;
43996;SDS011;34318;45.818;15.964;2022-08-21T08:35:37;4.60;;;4.07;;
43996;SDS011;34318;45.818;15.964;2022-08-21T08:38:07;4.72;;;4.05;;
43996;SDS011;34318;45.818;15.964;2022-08-21T08:43:18;3.97;;;3.67;;
43996;SDS011;34318;45.818;15.964;2022-08-21T08:45:50;4.68;;;3.75;;
43996;SDS011;34318;45.818;15.964;2022-08-21T08:48:43;3.90;;;3.60;;
43996;SDS011;34318;45.818;15.964;2022-08-21T08:51:21;5.20;;;4.70;;
43996;SDS011;34318;45.818;15.964;2022-08-21T08:53:55;9.18;;;6.03;;
43996;SDS011;34318;45.818;15.964;2022-08-21T08:56:28;7.10;;;6.38;;
43996;SDS011;34318;45.818;15.964;2022-08-21T08:59:02;9.35;;;8.55;;
43996;SDS011;34318;45.818;15.964;2022-08-21T09:01:45;9.30;;;8.40;;
43996;SDS011;34318;45.818;15.964;2022-08-21T09:04:12;8.73;;;7.93;;
43996;SDS011;34318;45.818;15.964;2022-08-21T09:09:33;8.85;;;7.50;;
43996;SDS011;34318;45.818;15.964;2022-08-21T09:17:34;7.70;;;6.38;;
43996;SDS011;34318;45.818;15.964;2022-08-21T09:25:43;6.60;;;5.05;;
43996;SDS011;34318;45.818;15.964;2022-08-21T09:28:22;5.63;;;4.70;;
43996;SDS011;34318;45.818;15.964;2022-08-21T09:30:48;4.97;;;4.47;;
43996;SDS011;34318;45.818;15.964;2022-08-21T09:33:23;5.55;;;4.68;;
43996;SDS011;34318;45.818;15.964;2022-08-21T09:35:52;4.68;;;4.28;;
43996;SDS011;34318;45.818;15.964;2022-08-21T09:38:24;5.35;;;4.15;;
43996;SDS011;34318;45.818;15.964;2022-08-21T09:41:04;4.47;;;4.07;;
43996;SDS011;34318;45.818;15.964;2022-08-21T09:43:33;4.30;;;3.72;;
43996;SDS011;34318;45.818;15.964;2022-08-21T09:46:07;3.80;;;3.50;;
43996;SDS011;34318;45.818;15.964;2022-08-21T09:48:47;3.70;;;3.40;;
43996;SDS011;34318;45.818;15.964;2022-08-21T09:51:21;3.53;;;3.22;;
43996;SDS011;34318;45.818;15.964;2022-08-21T09:53:52;3.75;;;2.88;;
43996;SDS011;34318;45.818;15.964;2022-08-21T09:56:28;3.83;;;2.60;;
43996;SDS011;34318;45.818;15.964;2022-08-21T09:59:20;2.85;;;2.65;;
43996;SDS011;34318;45.818;15.964;2022-08-21T10:02:48;2.72;;;2.53;;
43996;SDS011;34318;45.818;15.964;2022-08-21T10:05:00;2.85;;;2.65;;
43996;SDS011;34318;45.818;15.964;2022-08-21T10:07:36;3.13;;;2.92;;
43996;SDS011;34318;45.818;15.964;2022-08-21T10:10:05;2.63;;;2.42;;
43996;SDS011;34318;45.818;15.964;2022-08-21T10:12:46;2.53;;;2.33;;
43996;SDS011;34318;45.818;15.964;2022-08-21T10:37:01;4.15;;;2.10;;
43996;SDS011;34318;45.818;15.964;2022-08-21T10:39:43;2.50;;;2.30;;
43996;SDS011;34318;45.818;15.964;2022-08-21T10:42:33;2.65;;;2.42;;
43996;SDS011;34318;45.818;15.964;2022-08-21T10:48:38;1.95;;;1.85;;
43996;SDS011;34318;45.818;15.964;2022-08-21T10:51:16;3.50;;;3.22;;
43996;SDS011;34318;45.818;15.964;2022-08-21T10:56:51;4.40;;;4.00;;
43996;SDS011;34318;45.818;15.964;2022-08-21T10:59:44;4.13;;;3.72;;
43996;SDS011;34318;45.818;15.964;2022-08-21T11:02:20;3.40;;;3.10;;
43996;SDS011;34318;45.818;15.964;2022-08-21T11:05:14;4.25;;;3.35;;
43996;SDS011;34318;45.818;15.964;2022-08-21T11:07:55;3.30;;;3.00;;
43996;SDS011;34318;45.818;15.964;2022-08-21T11:10:32;2.95;;;2.70;;
43996;SDS011;34318;45.818;15.964;2022-08-21T11:13:17;5.05;;;2.65;;
43996;SDS011;34318;45.818;15.964;2022-08-21T11:16:00;3.00;;;2.60;;
43996;SDS011;34318;45.818;15.964;2022-08-21T11:18:43;2.47;;;2.28;;
43996;SDS011;34318;45.818;15.964;2022-08-21T11:21:38;2.58;;;2.38;;
43996;SDS011;34318;45.818;15.964;2022-08-21T11:27:03;2.10;;;2.00;;
43996;SDS011;34318;45.818;15.964;2022-08-21T11:29:38;2.35;;;2.25;;
43996;SDS011;34318;45.818;15.964;2022-08-21T11:32:18;3.28;;;2.90;;
43996;SDS011;34318;45.818;15.964;2022-08-21T11:34:59;6.75;;;6.10;;
43996;SDS011;34318;45.818;15.964;2022-08-21T11:45:54;5.60;;;5.20;;
43996;SDS011;34318;45.818;15.964;2022-08-21T11:52:30;8.38;;;7.68;;
43996;SDS011;34318;45.818;15.964;2022-08-21T11:55:26;5.93;;;5.32;;
43996;SDS011;34318;45.818;15.964;2022-08-21T11:58:22;6.22;;;4.47;;
43996;SDS011;34318;45.818;15.964;2022-08-21T12:00:58;8.73;;;8.02;;
43996;SDS011;34318;45.818;15.964;2022-08-21T12:03:39;6.50;;;6.00;;
43996;SDS011;34318;45.818;15.964;2022-08-21T12:06:13;7.40;;;6.80;;
43996;SDS011;34318;45.818;15.964;2022-08-21T12:08:56;12.18;;;6.93;;
43996;SDS011;34318;45.818;15.964;2022-08-21T12:11:49;6.00;;;5.45;;
43996;SDS011;34318;45.818;15.964;2022-08-21T12:22:14;3.70;;;3.37;;
43996;SDS011;34318;45.818;15.964;2022-08-21T12:29:50;2.60;;;2.40;;
43996;SDS011;34318;45.818;15.964;2022-08-21T12:32:25;3.42;;;2.45;;
43996;SDS011;34318;45.818;15.964;2022-08-21T12:42:58;4.53;;;3.03;;
43996;SDS011;34318;45.818;15.964;2022-08-21T12:48:57;2.90;;;2.70;;
43996;SDS011;34318;45.818;15.964;2022-08-21T12:55:42;2.67;;;2.47;;
43996;SDS011;34318;45.818;15.964;2022-08-21T12:58:24;2.77;;;2.57;;
43996;SDS011;34318;45.818;15.964;2022-08-21T13:01:31;2.72;;;2.53;;
43996;SDS011;34318;45.818;15.964;2022-08-21T13:04:11;3.45;;;2.55;;
43996;SDS011;34318;45.818;15.964;2022-08-21T13:07:17;2.78;;;2.58;;
43996;SDS011;34318;45.818;15.964;2022-08-21T13:10:32;3.70;;;2.42;;
43996;SDS011;34318;45.818;15.964;2022-08-21T13:13:50;2.40;;;2.30;;
43996;SDS011;34318;45.818;15.964;2022-08-21T13:16:18;2.35;;;2.25;;
43996;SDS011;34318;45.818;15.964;2022-08-21T13:21:56;2.30;;;2.10;;
43996;SDS011;34318;45.818;15.964;2022-08-21T13:27:59;4.60;;;2.65;;
43996;SDS011;34318;45.818;15.964;2022-08-21T13:30:38;3.00;;;2.80;;
43996;SDS011;34318;45.818;15.964;2022-08-21T13:33:26;2.83;;;2.63;;
43996;SDS011;34318;45.818;15.964;2022-08-21T13:36:37;3.83;;;3.53;;
43996;SDS011;34318;45.818;15.964;2022-08-21T13:39:09;5.55;;;5.15;;
43996;SDS011;34318;45.818;15.964;2022-08-21T13:41:45;6.07;;;5.22;;
43996;SDS011;34318;45.818;15.964;2022-08-21T13:46:46;4.20;;;3.90;;
43996;SDS011;34318;45.818;15.964;2022-08-21T13:49:16;5.85;;;3.67;;
43996;SDS011;34318;45.818;15.964;2022-08-21T13:51:45;4.60;;;3.42;;
43996;SDS011;34318;45.818;15.964;2022-08-21T13:54:59;3.38;;;2.95;;
43996;SDS011;34318;45.818;15.964;2022-08-21T13:57:36;2.90;;;2.70;;
43996;SDS011;34318;45.818;15.964;2022-08-21T14:00:19;3.90;;;2.75;;
43996;SDS011;34318;45.818;15.964;2022-08-21T14:02:53;3.22;;;2.45;;
43996;SDS011;34318;45.818;15.964;2022-08-21T14:05:25;2.47;;;2.28;;
43996;SDS011;34318;45.818;15.964;2022-08-21T14:08:00;4.82;;;2.55;;
43996;SDS011;34318;45.818;15.964;2022-08-21T14:10:28;3.17;;;2.00;;
43996;SDS011;34318;45.818;15.964;2022-08-21T14:13:01;2.33;;;2.13;;
43996;SDS011;34318;45.818;15.964;2022-08-21T14:15:32;2.20;;;2.00;;
43996;SDS011;34318;45.818;15.964;2022-08-21T14:18:15;2.20;;;2.10;;
43996;SDS011;34318;45.818;15.964;2022-08-21T14:20:44;2.33;;;2.13;;
43996;SDS011;34318;45.818;15.964;2022-08-21T14:27:08;5.45;;;4.95;;
43996;SDS011;34318;45.818;15.964;2022-08-21T14:29:37;6.32;;;5.72;;
43996;SDS011;34318;45.818;15.964;2022-08-21T14:36:35;9.90;;;9.05;;
43996;SDS011;34318;45.818;15.964;2022-08-21T14:39:02;10.50;;;9.60;;
43996;SDS011;34318;45.818;15.964;2022-08-21T14:41:29;8.90;;;8.20;;
43996;SDS011;34318;45.818;15.964;2022-08-21T14:43:56;8.43;;;7.72;;
43996;SDS011;34318;45.818;15.964;2022-08-21T14:46:34;6.25;;;5.75;;
43996;SDS011;34318;45.818;15.964;2022-08-21T14:49:25;7.28;;;6.63;;
43996;SDS011;34318;45.818;15.964;2022-08-21T14:51:56;5.25;;;4.05;;
43996;SDS011;34318;45.818;15.964;2022-08-21T14:54:25;5.47;;;4.97;;
43996;SDS011;34318;45.818;15.964;2022-08-21T14:57:07;8.73;;;7.93;;
43996;SDS011;34318;45.818;15.964;2022-08-21T14:59:48;9.57;;;8.77;;
43996;SDS011;34318;45.818;15.964;2022-08-21T15:02:30;10.30;;;9.23;;
43996;SDS011;34318;45.818;15.964;2022-08-21T15:04:58;9.25;;;8.45;;
43996;SDS011;34318;45.818;15.964;2022-08-21T15:07:25;8.02;;;7.22;;
43996;SDS011;34318;45.818;15.964;2022-08-21T15:09:52;7.75;;;7.05;;
43996;SDS011;34318;45.818;15.964;2022-08-21T15:12:20;6.70;;;6.10;;
43996;SDS011;34318;45.818;15.964;2022-08-21T15:14:50;5.13;;;3.90;;
43996;SDS011;34318;45.818;15.964;2022-08-21T15:17:18;4.07;;;3.67;;
43996;SDS011;34318;45.818;15.964;2022-08-21T15:19:45;5.47;;;3.90;;
43996;SDS011;34318;45.818;15.964;2022-08-21T15:22:15;6.25;;;4.38;;
43996;SDS011;34318;45.818;15.964;2022-08-21T15:27:50;3.10;;;2.90;;
43996;SDS011;34318;45.818;15.964;2022-08-21T15:30:17;2.80;;;2.60;;
43996;SDS011;34318;45.818;15.964;2022-08-21T15:32:45;3.28;;;2.90;;
43996;SDS011;34318;45.818;15.964;2022-08-21T15:35:12;3.22;;;2.78;;
43996;SDS011;34318;45.818;15.964;2022-08-21T15:37:39;2.50;;;2.30;;
43996;SDS011;34318;45.818;15.964;2022-08-21T15:40:07;2.45;;;2.25;;
43996;SDS011;34318;45.818;15.964;2022-08-21T15:42:35;2.38;;;2.20;;
43996;SDS011;34318;45.818;15.964;2022-08-21T15:45:06;2.90;;;2.10;;
43996;SDS011;34318;45.818;15.964;2022-08-21T15:47:42;2.03;;;1.90;;
43996;SDS011;34318;45.818;15.964;2022-08-21T15:50:11;2.60;;;2.40;;
43996;SDS011;34318;45.818;15.964;2022-08-21T15:52:40;1.95;;;1.85;;
43996;SDS011;34318;45.818;15.964;2022-08-21T15:55:07;2.15;;;2.00;;
43996;SDS011;34318;45.818;15.964;2022-08-21T15:57:48;2.58;;;2.08;;
43996;SDS011;34318;45.818;15.964;2022-08-21T16:00:48;1.80;;;1.70;;
43996;SDS011;34318;45.818;15.964;2022-08-21T16:06:29;1.98;;;1.80;;
43996;SDS011;34318;45.818;15.964;2022-08-21T16:09:16;4.32;;;1.85;;
43996;SDS011;34318;45.818;15.964;2022-08-21T16:11:43;2.10;;;1.85;;
43996;SDS011;34318;45.818;15.964;2022-08-21T16:14:11;3.42;;;2.05;;
43996;SDS011;34318;45.818;15.964;2022-08-21T16:16:45;5.47;;;2.08;;
43996;SDS011;34318;45.818;15.964;2022-08-21T16:19:12;5.40;;;2.30;;
43996;SDS011;34318;45.818;15.964;2022-08-21T16:21:42;3.58;;;2.05;;
43996;SDS011;34318;45.818;15.964;2022-08-21T16:24:10;2.28;;;2.00;;
43996;SDS011;34318;45.818;15.964;2022-08-21T16:26:37;5.70;;;1.90;;
43996;SDS011;34318;45.818;15.964;2022-08-21T16:29:05;2.83;;;2.13;;
43996;SDS011;34318;45.818;15.964;2022-08-21T16:31:34;2.83;;;1.67;;
43996;SDS011;34318;45.818;15.964;2022-08-21T16:34:01;1.70;;;1.60;;
43996;SDS011;34318;45.818;15.964;2022-08-21T16:36:28;3.22;;;1.42;;
43996;SDS011;34318;45.818;15.964;2022-08-21T16:38:57;2.50;;;1.77;;
43996;SDS011;34318;45.818;15.964;2022-08-21T16:41:26;1.70;;;1.60;;
43996;SDS011;34318;45.818;15.964;2022-08-21T16:43:58;1.60;;;1.50;;
43996;SDS011;34318;45.818;15.964;2022-08-21T16:46:28;3.20;;;1.55;;
43996;SDS011;34318;45.818;15.964;2022-08-21T16:48:56;2.22;;;1.33;;
43996;SDS011;34318;45.818;15.964;2022-08-21T16:51:24;1.45;;;1.35;;
43996;SDS011;34318;45.818;15.964;2022-08-21T16:53:51;1.42;;;1.33;;
43996;SDS011;34318;45.818;15.964;2022-08-21T16:56:19;1.30;;;0.95;;
43996;SDS011;34318;45.818;15.964;2022-08-21T16:58:47;1.10;;;1.10;;
43996;SDS011;34318;45.818;15.964;2022-08-21T17:01:18;1.20;;;1.20;;